sensor_id;sensor_type;location;lat;lon;timestamp;temperature;humidity
36654;DHT22;22650;49.350;20.898;2022-07-09T00:00:15;14.60;99.90
36654;DHT22;22650;49.350;20.898;2022-07-09T00:02:48;14.60;99.90
36654;DHT22;22650;49.350;20.898;2022-07-09T00:05:23;14.60;99.90
36654;DHT22;22650;49.350;20.898;2022-07-09T00:07:57;14.60;99.90
36654;DHT22;22650;49.350;20.898;2022-07-09T00:10:30;14.70;99.90
36654;DHT22;22650;49.350;20.898;2022-07-09T00:13:04;14.70;99.90
36654;DHT22;22650;49.350;20.898;2022-07-09T00:15:37;14.70;99.90
36654;DHT22;22650;49.350;20.898;2022-07-09T00:18:11;14.70;99.90
36654;DHT22;22650;49.350;20.898;2022-07-09T00:20:46;14.70;99.90
36654;DHT22;22650;49.350;20.898;2022-07-09T00:23:19;14.70;99.90
36654;DHT22;22650;49.350;20.898;2022-07-09T00:25:53;14.80;99.90
36654;DHT22;22650;49.350;20.898;2022-07-09T00:28:26;14.80;99.90
36654;DHT22;22650;49.350;20.898;2022-07-09T00:31:00;14.80;99.90
36654;DHT22;22650;49.350;20.898;2022-07-09T00:33:33;14.80;99.90
36654;DHT22;22650;49.350;20.898;2022-07-09T00:36:08;14.80;99.90
36654;DHT22;22650;49.350;20.898;2022-07-09T00:38:42;14.80;99.90
36654;DHT22;22650;49.350;20.898;2022-07-09T00:41:15;14.80;99.90
36654;DHT22;22650;49.350;20.898;2022-07-09T00:43:50;14.80;99.90
36654;DHT22;22650;49.350;20.898;2022-07-09T00:46:23;14.80;99.90
36654;DHT22;22650;49.350;20.898;2022-07-09T00:48:57;14.80;99.90
36654;DHT22;22650;49.350;20.898;2022-07-09T00:51:36;14.80;99.90
36654;DHT22;22650;49.350;20.898;2022-07-09T00:54:11;14.80;99.90
36654;DHT22;22650;49.350;20.898;2022-07-09T00:56:46;14.80;99.90
36654;DHT22;22650;49.350;20.898;2022-07-09T00:59:21;14.70;99.90
36654;DHT22;22650;49.350;20.898;2022-07-09T01:01:55;14.70;99.90
36654;DHT22;22650;49.350;20.898;2022-07-09T01:04:29;14.70;99.90
36654;DHT22;22650;49.350;20.898;2022-07-09T01:07:04;14.70;99.90
36654;DHT22;22650;49.350;20.898;2022-07-09T01:09:38;14.60;99.90
36654;DHT22;22650;49.350;20.898;2022-07-09T01:12:12;14.60;99.90
36654;DHT22;22650;49.350;20.898;2022-07-09T01:14:45;14.60;99.90
36654;DHT22;22650;49.350;20.898;2022-07-09T01:17:18;14.50;99.90
36654;DHT22;22650;49.350;20.898;2022-07-09T01:19:52;14.50;99.90
36654;DHT22;22650;49.350;20.898;2022-07-09T01:22:27;14.50;99.90
36654;DHT22;22650;49.350;20.898;2022-07-09T01:25:01;14.50;99.90
36654;DHT22;22650;49.350;20.898;2022-07-09T01:27:39;14.50;99.90
36654;DHT22;22650;49.350;20.898;2022-07-09T01:30:23;14.50;99.90
36654;DHT22;22650;49.350;20.898;2022-07-09T01:32:57;14.50;99.90
36654;DHT22;22650;49.350;20.898;2022-07-09T01:35:30;14.50;99.90
36654;DHT22;22650;49.350;20.898;2022-07-09T01:38:05;14.50;99.90
36654;DHT22;22650;49.350;20.898;2022-07-09T01:40:39;14.50;99.90
36654;DHT22;22650;49.350;20.898;2022-07-09T01:43:12;14.50;99.90
36654;DHT22;22650;49.350;20.898;2022-07-09T01:45:46;14.50;99.90
36654;DHT22;22650;49.350;20.898;2022-07-09T01:48:20;14.50;99.90
36654;DHT22;22650;49.350;20.898;2022-07-09T01:50:53;14.60;99.90
36654;DHT22;22650;49.350;20.898;2022-07-09T01:53:28;14.60;99.90
36654;DHT22;22650;49.350;20.898;2022-07-09T01:56:05;14.60;99.90
36654;DHT22;22650;49.350;20.898;2022-07-09T01:58:38;14.60;99.90
36654;DHT22;22650;49.350;20.898;2022-07-09T02:01:12;14.60;99.90
36654;DHT22;22650;49.350;20.898;2022-07-09T02:03:45;14.60;99.90
36654;DHT22;22650;49.350;20.898;2022-07-09T02:06:19;14.60;99.90
36654;DHT22;22650;49.350;20.898;2022-07-09T02:08:54;14.70;99.90
36654;DHT22;22650;49.350;20.898;2022-07-09T02:11:27;14.60;99.90
36654;DHT22;22650;49.350;20.898;2022-07-09T02:14:01;14.60;99.90
36654;DHT22;22650;49.350;20.898;2022-07-09T02:16:35;14.60;99.90
36654;DHT22;22650;49.350;20.898;2022-07-09T02:19:09;14.70;99.90
36654;DHT22;22650;49.350;20.898;2022-07-09T02:21:42;14.70;99.90
36654;DHT22;22650;49.350;20.898;2022-07-09T02:24:17;14.70;99.90
36654;DHT22;22650;49.350;20.898;2022-07-09T02:26:51;14.70;99.90
36654;DHT22;22650;49.350;20.898;2022-07-09T02:29:24;14.70;99.90
36654;DHT22;22650;49.350;20.898;2022-07-09T02:31:57;14.70;99.90
36654;DHT22;22650;49.350;20.898;2022-07-09T02:34:31;14.70;99.90
36654;DHT22;22650;49.350;20.898;2022-07-09T02:37:05;14.70;99.90
36654;DHT22;22650;49.350;20.898;2022-07-09T02:39:40;14.70;99.90
36654;DHT22;22650;49.350;20.898;2022-07-09T02:42:13;14.80;99.90
36654;DHT22;22650;49.350;20.898;2022-07-09T02:44:47;14.80;99.90
36654;DHT22;22650;49.350;20.898;2022-07-09T02:47:20;14.80;99.90
36654;DHT22;22650;49.350;20.898;2022-07-09T02:49:54;14.80;99.90
36654;DHT22;22650;49.350;20.898;2022-07-09T02:52:29;14.80;99.90
36654;DHT22;22650;49.350;20.898;2022-07-09T02:55:04;14.80;99.90
36654;DHT22;22650;49.350;20.898;2022-07-09T02:57:38;14.80;99.90
36654;DHT22;22650;49.350;20.898;2022-07-09T03:00:12;14.80;99.90
36654;DHT22;22650;49.350;20.898;2022-07-09T03:02:45;14.80;99.90
36654;DHT22;22650;49.350;20.898;2022-07-09T03:05:19;14.90;99.90
36654;DHT22;22650;49.350;20.898;2022-07-09T03:07:52;14.90;99.90
36654;DHT22;22650;49.350;20.898;2022-07-09T03:10:28;14.90;99.90
36654;DHT22;22650;49.350;20.898;2022-07-09T03:13:02;14.90;99.90
36654;DHT22;22650;49.350;20.898;2022-07-09T03:15:41;14.90;99.90
36654;DHT22;22650;49.350;20.898;2022-07-09T03:18:15;14.90;99.90
36654;DHT22;22650;49.350;20.898;2022-07-09T03:20:48;15.00;99.90
36654;DHT22;22650;49.350;20.898;2022-07-09T03:23:23;15.00;99.90
36654;DHT22;22650;49.350;20.898;2022-07-09T03:25:57;15.00;99.90
36654;DHT22;22650;49.350;20.898;2022-07-09T03:28:31;15.00;99.90
36654;DHT22;22650;49.350;20.898;2022-07-09T03:31:05;15.00;99.90
36654;DHT22;22650;49.350;20.898;2022-07-09T03:33:39;15.00;99.90
36654;DHT22;22650;49.350;20.898;2022-07-09T03:36:12;15.00;99.90
36654;DHT22;22650;49.350;20.898;2022-07-09T03:38:47;15.00;99.90
36654;DHT22;22650;49.350;20.898;2022-07-09T03:41:22;15.00;99.90
36654;DHT22;22650;49.350;20.898;2022-07-09T03:43:55;15.10;99.90
36654;DHT22;22650;49.350;20.898;2022-07-09T03:46:30;15.00;99.90
36654;DHT22;22650;49.350;20.898;2022-07-09T03:49:04;15.10;99.90
36654;DHT22;22650;49.350;20.898;2022-07-09T03:51:37;15.10;99.90
36654;DHT22;22650;49.350;20.898;2022-07-09T03:54:31;15.10;99.90
36654;DHT22;22650;49.350;20.898;2022-07-09T03:57:06;15.10;99.90
36654;DHT22;22650;49.350;20.898;2022-07-09T03:59:39;15.20;99.90
36654;DHT22;22650;49.350;20.898;2022-07-09T04:02:13;15.20;99.90
36654;DHT22;22650;49.350;20.898;2022-07-09T04:04:46;15.20;99.90
36654;DHT22;22650;49.350;20.898;2022-07-09T04:07:20;15.20;99.90
36654;DHT22;22650;49.350;20.898;2022-07-09T04:09:54;15.20;99.90
36654;DHT22;22650;49.350;20.898;2022-07-09T04:12:29;15.20;99.90
36654;DHT22;22650;49.350;20.898;2022-07-09T04:15:03;15.20;99.90
36654;DHT22;22650;49.350;20.898;2022-07-09T04:17:37;15.20;99.90
36654;DHT22;22650;49.350;20.898;2022-07-09T04:20:11;15.20;99.90
36654;DHT22;22650;49.350;20.898;2022-07-09T04:22:44;15.20;99.90
36654;DHT22;22650;49.350;20.898;2022-07-09T04:25:18;15.20;99.90
36654;DHT22;22650;49.350;20.898;2022-07-09T04:27:55;15.20;99.90
36654;DHT22;22650;49.350;20.898;2022-07-09T04:30:28;15.20;99.90
36654;DHT22;22650;49.350;20.898;2022-07-09T04:33:02;15.30;99.90
36654;DHT22;22650;49.350;20.898;2022-07-09T04:35:35;15.30;99.90
36654;DHT22;22650;49.350;20.898;2022-07-09T04:38:10;15.30;99.90
36654;DHT22;22650;49.350;20.898;2022-07-09T04:40:44;15.30;99.90
36654;DHT22;22650;49.350;20.898;2022-07-09T04:43:18;15.30;99.90
36654;DHT22;22650;49.350;20.898;2022-07-09T04:45:52;15.30;99.90
36654;DHT22;22650;49.350;20.898;2022-07-09T04:48:25;15.30;99.90
36654;DHT22;22650;49.350;20.898;2022-07-09T04:50:59;15.40;99.90
36654;DHT22;22650;49.350;20.898;2022-07-09T04:53:32;15.40;99.90
36654;DHT22;22650;49.350;20.898;2022-07-09T04:56:06;15.40;99.90
36654;DHT22;22650;49.350;20.898;2022-07-09T04:58:42;15.40;99.90
36654;DHT22;22650;49.350;20.898;2022-07-09T05:01:23;15.40;99.90
36654;DHT22;22650;49.350;20.898;2022-07-09T05:03:57;15.40;99.90
36654;DHT22;22650;49.350;20.898;2022-07-09T05:06:31;15.50;99.90
36654;DHT22;22650;49.350;20.898;2022-07-09T05:09:04;15.50;99.90
36654;DHT22;22650;49.350;20.898;2022-07-09T05:11:38;15.50;99.90
36654;DHT22;22650;49.350;20.898;2022-07-09T05:14:13;15.60;99.90
36654;DHT22;22650;49.350;20.898;2022-07-09T05:16:46;15.60;99.90
36654;DHT22;22650;49.350;20.898;2022-07-09T05:19:20;15.60;99.90
36654;DHT22;22650;49.350;20.898;2022-07-09T05:21:53;15.60;99.90
36654;DHT22;22650;49.350;20.898;2022-07-09T05:24:27;15.70;99.90
36654;DHT22;22650;49.350;20.898;2022-07-09T05:27:00;15.70;99.90
36654;DHT22;22650;49.350;20.898;2022-07-09T05:29:35;15.70;99.90
36654;DHT22;22650;49.350;20.898;2022-07-09T05:32:09;15.80;99.90
36654;DHT22;22650;49.350;20.898;2022-07-09T05:34:42;15.70;99.90
36654;DHT22;22650;49.350;20.898;2022-07-09T05:37:16;15.80;99.90
36654;DHT22;22650;49.350;20.898;2022-07-09T05:39:49;15.80;99.90
36654;DHT22;22650;49.350;20.898;2022-07-09T05:42:24;15.80;99.90
36654;DHT22;22650;49.350;20.898;2022-07-09T05:44:59;15.90;99.90
36654;DHT22;22650;49.350;20.898;2022-07-09T05:47:32;15.90;99.90
36654;DHT22;22650;49.350;20.898;2022-07-09T05:50:08;15.90;99.90
36654;DHT22;22650;49.350;20.898;2022-07-09T05:52:41;16.00;99.90
36654;DHT22;22650;49.350;20.898;2022-07-09T05:55:15;16.00;99.90
36654;DHT22;22650;49.350;20.898;2022-07-09T05:57:48;16.00;99.90
36654;DHT22;22650;49.350;20.898;2022-07-09T06:00:23;16.00;99.90
36654;DHT22;22650;49.350;20.898;2022-07-09T06:02:57;16.00;99.90
36654;DHT22;22650;49.350;20.898;2022-07-09T06:05:30;16.00;99.90
36654;DHT22;22650;49.350;20.898;2022-07-09T06:08:04;16.00;99.90
36654;DHT22;22650;49.350;20.898;2022-07-09T06:10:37;16.00;99.90
36654;DHT22;22650;49.350;20.898;2022-07-09T06:13:11;16.00;99.90
36654;DHT22;22650;49.350;20.898;2022-07-09T06:15:45;16.00;99.90
36654;DHT22;22650;49.350;20.898;2022-07-09T06:18:19;16.10;99.90
36654;DHT22;22650;49.350;20.898;2022-07-09T06:20:54;16.10;99.90
36654;DHT22;22650;49.350;20.898;2022-07-09T06:23:27;16.10;99.90
36654;DHT22;22650;49.350;20.898;2022-07-09T06:26:00;16.10;99.90
36654;DHT22;22650;49.350;20.898;2022-07-09T06:28:36;16.10;99.90
36654;DHT22;22650;49.350;20.898;2022-07-09T06:31:10;16.10;99.90
36654;DHT22;22650;49.350;20.898;2022-07-09T06:33:44;16.20;99.90
36654;DHT22;22650;49.350;20.898;2022-07-09T06:36:18;16.20;99.90
36654;DHT22;22650;49.350;20.898;2022-07-09T06:38:51;16.20;99.90
36654;DHT22;22650;49.350;20.898;2022-07-09T06:41:42;16.20;99.90
36654;DHT22;22650;49.350;20.898;2022-07-09T06:44:16;16.20;99.90
36654;DHT22;22650;49.350;20.898;2022-07-09T06:46:51;16.20;99.90
36654;DHT22;22650;49.350;20.898;2022-07-09T06:49:24;16.20;99.90
36654;DHT22;22650;49.350;20.898;2022-07-09T06:51:58;16.20;99.90
36654;DHT22;22650;49.350;20.898;2022-07-09T06:54:31;16.20;99.90
36654;DHT22;22650;49.350;20.898;2022-07-09T06:57:05;16.20;99.90
36654;DHT22;22650;49.350;20.898;2022-07-09T06:59:41;16.20;99.90
36654;DHT22;22650;49.350;20.898;2022-07-09T07:02:16;16.30;99.90
36654;DHT22;22650;49.350;20.898;2022-07-09T07:04:49;16.30;99.90
36654;DHT22;22650;49.350;20.898;2022-07-09T07:07:23;16.30;99.90
36654;DHT22;22650;49.350;20.898;2022-07-09T07:09:56;16.30;99.90
36654;DHT22;22650;49.350;20.898;2022-07-09T07:12:30;16.30;99.90
36654;DHT22;22650;49.350;20.898;2022-07-09T07:15:04;16.30;99.90
36654;DHT22;22650;49.350;20.898;2022-07-09T07:17:38;16.30;99.90
36654;DHT22;22650;49.350;20.898;2022-07-09T07:20:12;16.30;99.90
36654;DHT22;22650;49.350;20.898;2022-07-09T07:22:45;16.30;99.90
36654;DHT22;22650;49.350;20.898;2022-07-09T07:25:19;16.30;99.90
36654;DHT22;22650;49.350;20.898;2022-07-09T07:27:52;16.40;99.90
36654;DHT22;22650;49.350;20.898;2022-07-09T07:30:26;16.50;99.90
36654;DHT22;22650;49.350;20.898;2022-07-09T07:33:00;16.50;99.90
36654;DHT22;22650;49.350;20.898;2022-07-09T07:35:34;16.50;99.90
36654;DHT22;22650;49.350;20.898;2022-07-09T07:38:07;16.60;99.90
36654;DHT22;22650;49.350;20.898;2022-07-09T07:40:41;16.60;99.90
36654;DHT22;22650;49.350;20.898;2022-07-09T07:43:15;16.60;99.90
36654;DHT22;22650;49.350;20.898;2022-07-09T07:45:48;16.60;99.90
36654;DHT22;22650;49.350;20.898;2022-07-09T07:48:23;16.70;99.90
36654;DHT22;22650;49.350;20.898;2022-07-09T07:50:59;16.70;99.90
36654;DHT22;22650;49.350;20.898;2022-07-09T07:53:33;16.80;99.90
36654;DHT22;22650;49.350;20.898;2022-07-09T07:56:07;16.90;99.90
36654;DHT22;22650;49.350;20.898;2022-07-09T07:58:41;17.00;99.90
36654;DHT22;22650;49.350;20.898;2022-07-09T08:01:14;17.10;99.90
36654;DHT22;22650;49.350;20.898;2022-07-09T08:03:49;17.20;99.90
36654;DHT22;22650;49.350;20.898;2022-07-09T08:06:22;17.30;99.90
36654;DHT22;22650;49.350;20.898;2022-07-09T08:08:55;17.30;99.90
36654;DHT22;22650;49.350;20.898;2022-07-09T08:11:29;17.40;99.90
36654;DHT22;22650;49.350;20.898;2022-07-09T08:14:02;17.40;99.90
36654;DHT22;22650;49.350;20.898;2022-07-09T08:16:37;17.50;99.90
36654;DHT22;22650;49.350;20.898;2022-07-09T08:19:13;17.60;99.90
36654;DHT22;22650;49.350;20.898;2022-07-09T08:21:47;17.60;99.90
36654;DHT22;22650;49.350;20.898;2022-07-09T08:24:21;17.60;99.90
36654;DHT22;22650;49.350;20.898;2022-07-09T08:26:55;17.70;99.90
36654;DHT22;22650;49.350;20.898;2022-07-09T08:29:28;17.80;99.90
36654;DHT22;22650;49.350;20.898;2022-07-09T08:32:02;17.90;99.90
36654;DHT22;22650;49.350;20.898;2022-07-09T08:34:37;18.00;99.90
36654;DHT22;22650;49.350;20.898;2022-07-09T08:37:11;18.10;99.90
36654;DHT22;22650;49.350;20.898;2022-07-09T08:39:44;18.30;99.90
36654;DHT22;22650;49.350;20.898;2022-07-09T08:42:18;18.50;99.90
36654;DHT22;22650;49.350;20.898;2022-07-09T08:44:52;18.80;99.90
36654;DHT22;22650;49.350;20.898;2022-07-09T08:47:27;19.10;99.90
36654;DHT22;22650;49.350;20.898;2022-07-09T08:50:03;19.40;99.90
36654;DHT22;22650;49.350;20.898;2022-07-09T08:52:39;19.70;99.90
36654;DHT22;22650;49.350;20.898;2022-07-09T08:55:13;19.90;99.90
36654;DHT22;22650;49.350;20.898;2022-07-09T08:57:46;20.10;99.90
36654;DHT22;22650;49.350;20.898;2022-07-09T09:00:20;20.20;99.90
36654;DHT22;22650;49.350;20.898;2022-07-09T09:02:53;20.40;99.90
36654;DHT22;22650;49.350;20.898;2022-07-09T09:05:28;20.60;99.90
36654;DHT22;22650;49.350;20.898;2022-07-09T09:08:16;21.00;99.90
36654;DHT22;22650;49.350;20.898;2022-07-09T09:10:50;21.40;99.90
36654;DHT22;22650;49.350;20.898;2022-07-09T09:13:23;21.70;99.90
36654;DHT22;22650;49.350;20.898;2022-07-09T09:16:04;22.00;99.90
36654;DHT22;22650;49.350;20.898;2022-07-09T09:18:40;22.20;99.90
36654;DHT22;22650;49.350;20.898;2022-07-09T09:21:18;22.40;99.90
36654;DHT22;22650;49.350;20.898;2022-07-09T09:23:53;22.50;99.90
36654;DHT22;22650;49.350;20.898;2022-07-09T09:26:27;22.60;99.90
36654;DHT22;22650;49.350;20.898;2022-07-09T09:29:02;22.60;99.90
36654;DHT22;22650;49.350;20.898;2022-07-09T09:31:37;22.70;99.90
36654;DHT22;22650;49.350;20.898;2022-07-09T09:34:12;22.70;99.90
36654;DHT22;22650;49.350;20.898;2022-07-09T09:36:48;22.80;99.90
36654;DHT22;22650;49.350;20.898;2022-07-09T09:39:24;22.90;99.90
36654;DHT22;22650;49.350;20.898;2022-07-09T09:41:59;22.90;99.90
36654;DHT22;22650;49.350;20.898;2022-07-09T09:44:33;22.90;99.90
36654;DHT22;22650;49.350;20.898;2022-07-09T09:47:10;22.90;99.90
36654;DHT22;22650;49.350;20.898;2022-07-09T09:49:43;22.90;99.90
36654;DHT22;22650;49.350;20.898;2022-07-09T09:52:20;23.00;99.90
36654;DHT22;22650;49.350;20.898;2022-07-09T09:54:54;23.10;99.90
36654;DHT22;22650;49.350;20.898;2022-07-09T09:57:28;23.00;99.80
36654;DHT22;22650;49.350;20.898;2022-07-09T10:00:02;22.90;99.00
36654;DHT22;22650;49.350;20.898;2022-07-09T10:02:43;22.70;98.00
36654;DHT22;22650;49.350;20.898;2022-07-09T10:05:17;22.50;97.70
36654;DHT22;22650;49.350;20.898;2022-07-09T10:07:52;22.50;98.40
36654;DHT22;22650;49.350;20.898;2022-07-09T10:10:25;22.40;97.90
36654;DHT22;22650;49.350;20.898;2022-07-09T10:12:59;22.40;98.80
36654;DHT22;22650;49.350;20.898;2022-07-09T10:15:33;22.30;98.30
36654;DHT22;22650;49.350;20.898;2022-07-09T10:18:09;22.20;97.60
36654;DHT22;22650;49.350;20.898;2022-07-09T10:20:43;22.00;96.90
36654;DHT22;22650;49.350;20.898;2022-07-09T10:23:22;21.80;97.70
36654;DHT22;22650;49.350;20.898;2022-07-09T10:25:55;21.80;97.60
36654;DHT22;22650;49.350;20.898;2022-07-09T10:28:29;21.60;98.60
36654;DHT22;22650;49.350;20.898;2022-07-09T10:31:07;21.60;98.50
36654;DHT22;22650;49.350;20.898;2022-07-09T10:33:48;21.60;99.60
36654;DHT22;22650;49.350;20.898;2022-07-09T10:36:27;21.60;99.90
36654;DHT22;22650;49.350;20.898;2022-07-09T10:39:11;21.80;99.90
36654;DHT22;22650;49.350;20.898;2022-07-09T10:41:45;22.00;99.90
36654;DHT22;22650;49.350;20.898;2022-07-09T10:44:26;22.20;99.90
36654;DHT22;22650;49.350;20.898;2022-07-09T10:47:00;22.30;98.30
36654;DHT22;22650;49.350;20.898;2022-07-09T10:49:34;22.40;98.60
36654;DHT22;22650;49.350;20.898;2022-07-09T10:52:09;22.50;99.80
36654;DHT22;22650;49.350;20.898;2022-07-09T10:54:47;22.70;98.90
36654;DHT22;22650;49.350;20.898;2022-07-09T10:57:21;22.90;99.30
36654;DHT22;22650;49.350;20.898;2022-07-09T10:59:54;22.90;98.70
36654;DHT22;22650;49.350;20.898;2022-07-09T11:02:27;23.10;98.40
36654;DHT22;22650;49.350;20.898;2022-07-09T11:05:01;23.10;97.90
36654;DHT22;22650;49.350;20.898;2022-07-09T11:07:35;23.20;97.50
36654;DHT22;22650;49.350;20.898;2022-07-09T11:10:18;23.30;96.60
36654;DHT22;22650;49.350;20.898;2022-07-09T11:12:52;23.30;95.00
36654;DHT22;22650;49.350;20.898;2022-07-09T11:15:28;23.30;95.40
36654;DHT22;22650;49.350;20.898;2022-07-09T11:18:03;23.10;94.20
36654;DHT22;22650;49.350;20.898;2022-07-09T11:20:38;22.90;93.70
36654;DHT22;22650;49.350;20.898;2022-07-09T11:23:13;22.90;95.40
36654;DHT22;22650;49.350;20.898;2022-07-09T11:25:48;23.00;95.20
36654;DHT22;22650;49.350;20.898;2022-07-09T11:28:23;23.00;95.70
36654;DHT22;22650;49.350;20.898;2022-07-09T11:31:00;23.10;95.20
36654;DHT22;22650;49.350;20.898;2022-07-09T11:33:36;23.30;94.70
36654;DHT22;22650;49.350;20.898;2022-07-09T11:36:35;23.50;93.70
36654;DHT22;22650;49.350;20.898;2022-07-09T11:39:09;23.60;91.50
36654;DHT22;22650;49.350;20.898;2022-07-09T11:41:44;23.70;92.00
36654;DHT22;22650;49.350;20.898;2022-07-09T11:44:22;23.80;91.10
36654;DHT22;22650;49.350;20.898;2022-07-09T11:47:01;23.80;91.20
36654;DHT22;22650;49.350;20.898;2022-07-09T11:49:36;23.70;90.60
36654;DHT22;22650;49.350;20.898;2022-07-09T11:52:17;23.60;90.80
36654;DHT22;22650;49.350;20.898;2022-07-09T11:54:56;23.40;88.10
36654;DHT22;22650;49.350;20.898;2022-07-09T11:57:33;23.30;91.80
36654;DHT22;22650;49.350;20.898;2022-07-09T12:00:08;23.30;90.90
36654;DHT22;22650;49.350;20.898;2022-07-09T12:02:44;23.20;88.40
36654;DHT22;22650;49.350;20.898;2022-07-09T12:05:25;23.00;87.20
36654;DHT22;22650;49.350;20.898;2022-07-09T12:08:02;23.00;88.80
36654;DHT22;22650;49.350;20.898;2022-07-09T12:10:38;23.00;88.90
36654;DHT22;22650;49.350;20.898;2022-07-09T12:13:13;23.10;86.50
36654;DHT22;22650;49.350;20.898;2022-07-09T12:15:46;23.10;87.80
36654;DHT22;22650;49.350;20.898;2022-07-09T12:18:20;23.30;87.40
36654;DHT22;22650;49.350;20.898;2022-07-09T12:20:53;23.30;83.80
36654;DHT22;22650;49.350;20.898;2022-07-09T12:23:27;23.50;83.80
36654;DHT22;22650;49.350;20.898;2022-07-09T12:26:00;23.70;86.60
36654;DHT22;22650;49.350;20.898;2022-07-09T12:28:35;24.10;84.30
36654;DHT22;22650;49.350;20.898;2022-07-09T12:31:09;24.40;89.60
36654;DHT22;22650;49.350;20.898;2022-07-09T12:33:42;24.50;82.30
36654;DHT22;22650;49.350;20.898;2022-07-09T12:36:16;24.70;82.90
36654;DHT22;22650;49.350;20.898;2022-07-09T12:39:05;24.90;83.60
36654;DHT22;22650;49.350;20.898;2022-07-09T12:41:38;25.30;80.90
36654;DHT22;22650;49.350;20.898;2022-07-09T12:44:13;25.50;82.20
36654;DHT22;22650;49.350;20.898;2022-07-09T12:46:47;25.70;80.10
36654;DHT22;22650;49.350;20.898;2022-07-09T12:49:21;25.90;78.20
36654;DHT22;22650;49.350;20.898;2022-07-09T12:51:54;26.10;77.40
36654;DHT22;22650;49.350;20.898;2022-07-09T12:54:27;26.30;78.60
36654;DHT22;22650;49.350;20.898;2022-07-09T12:57:01;26.50;75.80
36654;DHT22;22650;49.350;20.898;2022-07-09T12:59:42;26.70;74.60
36654;DHT22;22650;49.350;20.898;2022-07-09T13:02:15;26.90;73.70
36654;DHT22;22650;49.350;20.898;2022-07-09T13:04:56;27.00;73.20
36654;DHT22;22650;49.350;20.898;2022-07-09T13:07:29;27.10;73.30
36654;DHT22;22650;49.350;20.898;2022-07-09T13:10:03;27.30;74.10
36654;DHT22;22650;49.350;20.898;2022-07-09T13:12:37;27.60;72.60
36654;DHT22;22650;49.350;20.898;2022-07-09T13:15:12;27.80;73.20
36654;DHT22;22650;49.350;20.898;2022-07-09T13:17:45;28.00;71.50
36654;DHT22;22650;49.350;20.898;2022-07-09T13:20:19;28.20;71.70
36654;DHT22;22650;49.350;20.898;2022-07-09T13:22:52;28.20;69.70
36654;DHT22;22650;49.350;20.898;2022-07-09T13:25:26;28.20;70.20
36654;DHT22;22650;49.350;20.898;2022-07-09T13:27:59;28.40;68.80
36654;DHT22;22650;49.350;20.898;2022-07-09T13:30:35;28.40;68.50
36654;DHT22;22650;49.350;20.898;2022-07-09T13:33:08;28.40;64.40
36654;DHT22;22650;49.350;20.898;2022-07-09T13:35:42;28.10;63.50
36654;DHT22;22650;49.350;20.898;2022-07-09T13:38:16;28.00;63.10
36654;DHT22;22650;49.350;20.898;2022-07-09T13:40:51;27.80;63.90
36654;DHT22;22650;49.350;20.898;2022-07-09T13:43:25;27.60;65.00
36654;DHT22;22650;49.350;20.898;2022-07-09T13:46:09;27.40;64.40
36654;DHT22;22650;49.350;20.898;2022-07-09T13:48:43;27.30;66.10
36654;DHT22;22650;49.350;20.898;2022-07-09T13:51:16;27.20;67.40
36654;DHT22;22650;49.350;20.898;2022-07-09T13:53:50;27.10;68.10
36654;DHT22;22650;49.350;20.898;2022-07-09T13:56:24;27.10;68.10
36654;DHT22;22650;49.350;20.898;2022-07-09T13:58:57;27.00;67.00
36654;DHT22;22650;49.350;20.898;2022-07-09T14:01:32;27.00;68.90
36654;DHT22;22650;49.350;20.898;2022-07-09T14:04:06;26.70;64.30
36654;DHT22;22650;49.350;20.898;2022-07-09T14:06:39;26.50;65.10
36654;DHT22;22650;49.350;20.898;2022-07-09T14:09:18;26.30;65.60
36654;DHT22;22650;49.350;20.898;2022-07-09T14:11:52;26.10;64.00
36654;DHT22;22650;49.350;20.898;2022-07-09T14:14:26;26.20;67.90
36654;DHT22;22650;49.350;20.898;2022-07-09T14:17:01;26.20;65.90
36654;DHT22;22650;49.350;20.898;2022-07-09T14:19:37;26.20;66.60
36654;DHT22;22650;49.350;20.898;2022-07-09T14:22:12;26.20;65.30
36654;DHT22;22650;49.350;20.898;2022-07-09T14:24:47;26.10;64.50
36654;DHT22;22650;49.350;20.898;2022-07-09T14:27:20;26.00;64.90
36654;DHT22;22650;49.350;20.898;2022-07-09T14:29:53;26.00;65.10
36654;DHT22;22650;49.350;20.898;2022-07-09T14:32:28;26.00;67.50
36654;DHT22;22650;49.350;20.898;2022-07-09T14:35:02;26.10;67.10
36654;DHT22;22650;49.350;20.898;2022-07-09T14:37:36;26.20;66.20
36654;DHT22;22650;49.350;20.898;2022-07-09T14:40:10;26.20;65.30
36654;DHT22;22650;49.350;20.898;2022-07-09T14:42:44;26.10;64.90
36654;DHT22;22650;49.350;20.898;2022-07-09T14:45:18;26.00;66.10
36654;DHT22;22650;49.350;20.898;2022-07-09T14:47:53;26.00;65.00
36654;DHT22;22650;49.350;20.898;2022-07-09T14:50:26;26.00;63.80
36654;DHT22;22650;49.350;20.898;2022-07-09T14:53:00;26.00;64.90
36654;DHT22;22650;49.350;20.898;2022-07-09T14:55:34;26.00;65.90
36654;DHT22;22650;49.350;20.898;2022-07-09T14:58:08;26.00;65.80
36654;DHT22;22650;49.350;20.898;2022-07-09T15:00:41;25.90;65.20
36654;DHT22;22650;49.350;20.898;2022-07-09T15:03:16;25.70;65.50
36654;DHT22;22650;49.350;20.898;2022-07-09T15:05:50;25.80;65.70
36654;DHT22;22650;49.350;20.898;2022-07-09T15:08:23;25.80;66.10
36654;DHT22;22650;49.350;20.898;2022-07-09T15:10:57;25.70;64.80
36654;DHT22;22650;49.350;20.898;2022-07-09T15:13:30;25.70;65.00
36654;DHT22;22650;49.350;20.898;2022-07-09T15:16:04;25.50;64.30
36654;DHT22;22650;49.350;20.898;2022-07-09T15:18:39;25.40;64.70
36654;DHT22;22650;49.350;20.898;2022-07-09T15:21:14;25.30;65.60
36654;DHT22;22650;49.350;20.898;2022-07-09T15:23:47;25.20;65.40
36654;DHT22;22650;49.350;20.898;2022-07-09T15:26:21;25.20;66.50
36654;DHT22;22650;49.350;20.898;2022-07-09T15:28:54;25.10;65.50
36654;DHT22;22650;49.350;20.898;2022-07-09T15:31:28;25.00;66.60
36654;DHT22;22650;49.350;20.898;2022-07-09T15:34:03;25.00;66.40
36654;DHT22;22650;49.350;20.898;2022-07-09T15:36:36;25.00;66.10
36654;DHT22;22650;49.350;20.898;2022-07-09T15:39:10;25.10;66.40
36654;DHT22;22650;49.350;20.898;2022-07-09T15:41:43;25.00;66.70
36654;DHT22;22650;49.350;20.898;2022-07-09T15:44:16;24.80;64.90
36654;DHT22;22650;49.350;20.898;2022-07-09T15:46:50;24.70;65.20
36654;DHT22;22650;49.350;20.898;2022-07-09T15:49:27;24.60;66.70
36654;DHT22;22650;49.350;20.898;2022-07-09T15:52:03;24.60;66.20
36654;DHT22;22650;49.350;20.898;2022-07-09T15:54:38;24.60;66.80
36654;DHT22;22650;49.350;20.898;2022-07-09T15:57:11;24.60;67.80
36654;DHT22;22650;49.350;20.898;2022-07-09T15:59:45;24.70;67.70